Time;durP1;ratioP1;P1;durP2;ratioP2;P2;SDS_P1;SDS_P2;PMS_P1;PMS_P2;Temp;Humidity;BMP_temperature;BMP_pressure;BME280_temperature;BME280_humidity;BME280_pressure;Samples;Min_cycle;Max_cycle;Signal;HPM_P1;HPM_P2
2023/08/28 00:00:10;;;;;;;4.45;2.30;;;17.50;99.90;;;;;;5110426;27;20035;-80
2023/08/28 00:02:36;;;;;;;6.00;2.15;;;17.60;99.90;;;;;;5113586;27;20072;-82
2023/08/28 00:05:02;;;;;;;3.60;2.50;;;17.50;99.90;;;;;;5095175;27;21096;-82
2023/08/28 00:07:29;;;;;;;3.60;2.70;;;17.50;99.90;;;;;;5093964;27;20082;-82
2023/08/28 00:09:54;;;;;;;6.25;3.10;;;17.40;99.90;;;;;;5127063;27;20063;-81
2023/08/28 00:12:21;;;;;;;3.17;2.88;;;17.50;99.90;;;;;;5110327;28;20063;-85
2023/08/28 00:14:47;;;;;;;3.97;2.40;;;17.30;99.90;;;;;;5111954;27;20035;-84
2023/08/28 00:17:13;;;;;;;5.90;3.03;;;17.40;99.90;;;;;;5097839;27;20118;-86
2023/08/28 00:19:39;;;;;;;3.90;2.40;;;17.30;99.90;;;;;;5073003;28;20043;-83
2023/08/28 00:22:05;;;;;;;3.22;2.42;;;17.40;99.90;;;;;;5095732;27;20035;-83
2023/08/28 00:24:30;;;;;;;4.80;2.50;;;17.30;99.90;;;;;;5092245;27;20442;-85
2023/08/28 00:26:56;;;;;;;5.53;2.55;;;17.20;99.90;;;;;;5092336;27;20054;-84
2023/08/28 00:29:22;;;;;;;4.60;2.45;;;17.30;99.90;;;;;;5113302;27;20426;-82
2023/08/28 00:31:47;;;;;;;3.72;2.30;;;17.20;99.90;;;;;;5088465;28;20443;-83
2023/08/28 00:34:13;;;;;;;3.65;2.20;;;17.10;99.90;;;;;;5113501;27;20035;-82
2023/08/28 00:36:39;;;;;;;4.43;2.13;;;17.10;99.90;;;;;;5106227;27;20402;-84
2023/08/28 00:39:04;;;;;;;3.53;2.20;;;17.00;99.90;;;;;;5114039;27;20043;-82
2023/08/28 00:41:33;;;;;;;4.22;2.42;;;17.00;99.90;;;;;;5091160;27;20072;-85
2023/08/28 00:44:00;;;;;;;9.73;2.47;;;17.00;99.90;;;;;;5077530;27;20533;-84
2023/08/28 00:46:26;;;;;;;3.83;2.38;;;17.00;99.90;;;;;;5129920;27;20035;-85
2023/08/28 00:48:51;;;;;;;3.13;1.95;;;17.10;99.90;;;;;;5094091;27;20141;-84
2023/08/28 00:51:17;;;;;;;3.30;2.03;;;17.00;99.90;;;;;;5078284;27;20171;-84
2023/08/28 00:53:43;;;;;;;2.70;2.50;;;16.90;99.90;;;;;;5104287;27;20031;-82
2023/08/28 00:56:09;;;;;;;4.45;2.38;;;16.90;99.90;;;;;;5112195;27;20095;-80
2023/08/28 00:58:35;;;;;;;2.85;2.17;;;17.00;99.90;;;;;;5110570;27;20111;-82
2023/08/28 01:01:01;;;;;;;3.97;2.22;;;;;;;;;;5110484;27;20626;-84
2023/08/28 01:03:27;;;;;;;3.70;2.50;;;17.00;99.90;;;;;;5111005;27;20035;-81
2023/08/28 01:06:14;;;;;;;2.80;2.60;;;17.10;99.90;;;;;;5113335;27;20088;-83
2023/08/28 01:08:43;;;;;;;2.63;2.40;;;17.10;99.90;;;;;;5113764;27;20039;-83
2023/08/28 01:12:04;;;;;;;2.53;2.10;;;17.00;99.90;;;;;;5113383;27;20039;-82
2023/08/28 01:14:30;;;;;;;3.42;2.58;;;17.10;99.90;;;;;;5104184;27;20317;-83
2023/08/28 01:17:05;;;;;;;3.50;2.70;;;17.00;99.90;;;;;;5087342;27;20146;-82
2023/08/28 01:19:42;;;;;;;5.65;3.20;;;17.10;99.90;;;;;;5122893;27;20471;-85
2023/08/28 01:22:42;;;;;;;7.20;3.58;;;17.10;99.90;;;;;;5129381;27;20043;-83
2023/08/28 01:25:14;;;;;;;5.05;2.75;;;17.00;99.90;;;;;;5129536;27;20043;-84
2023/08/28 01:27:43;;;;;;;4.55;2.67;;;17.10;99.90;;;;;;5096798;27;20050;-83
2023/08/28 01:30:16;;;;;;;2.83;2.38;;;17.10;99.90;;;;;;5123369;27;20035;-84
2023/08/28 01:32:44;;;;;;;2.83;2.28;;;17.00;99.90;;;;;;5105942;27;20089;-83
2023/08/28 01:35:17;;;;;;;4.10;2.00;;;17.10;99.90;;;;;;5127504;27;20034;-83
2023/08/28 01:38:11;;;;;;;2.60;2.17;;;17.10;99.90;;;;;;5110089;27;20031;-83
2023/08/28 01:40:44;;;;;;;7.05;2.30;;;17.00;99.90;;;;;;5112510;27;20042;-84
2023/08/28 01:43:13;;;;;;;4.75;2.10;;;17.10;99.90;;;;;;5112366;27;20119;-83
2023/08/28 01:45:39;;;;;;;3.40;2.08;;;17.10;99.90;;;;;;5108911;28;20040;-84
2023/08/28 01:48:07;;;;;;;2.67;1.80;;;17.00;99.90;;;;;;5125460;27;20110;-83
2023/08/28 01:50:34;;;;;;;3.47;2.10;;;17.10;99.90;;;;;;5093648;27;20121;-83
2023/08/28 01:53:03;;;;;;;2.78;1.88;;;17.00;99.90;;;;;;5130878;27;20035;-83
2023/08/28 01:56:06;;;;;;;4.20;2.10;;;17.00;99.90;;;;;;5112029;27;20123;-84
2023/08/28 01:58:41;;;;;;;2.20;1.90;;;17.10;99.90;;;;;;5131257;27;20046;-82
2023/08/28 02:01:07;;;;;;;5.23;2.27;;;17.00;99.90;;;;;;5115315;27;20039;-83
2023/08/28 02:03:33;;;;;;;2.97;1.90;;;17.00;99.90;;;;;;5094007;27;20043;-82
2023/08/28 02:05:59;;;;;;;2.25;2.00;;;16.50;99.90;;;;;;5110892;27;20066;-84
2023/08/28 02:08:25;;;;;;;2.83;2.10;;;17.00;99.90;;;;;;5114140;27;20035;-84
2023/08/28 02:10:52;;;;;;;7.85;1.92;;;17.00;99.90;;;;;;5087852;27;20053;-82
2023/08/28 02:13:17;;;;;;;2.60;1.80;;;17.00;99.90;;;;;;5115232;27;20407;-83
2023/08/28 02:15:43;;;;;;;3.15;1.88;;;17.10;99.90;;;;;;5113883;27;20698;-82
2023/08/28 02:18:09;;;;;;;3.80;2.00;;;17.00;99.90;;;;;;5114364;27;20084;-83
2023/08/28 02:20:35;;;;;;;4.53;2.30;;;17.10;99.90;;;;;;5072688;27;20073;-83
2023/08/28 02:23:00;;;;;;;3.15;2.40;;;17.10;99.90;;;;;;5078822;27;20031;-84
2023/08/28 02:25:26;;;;;;;2.63;2.30;;;17.00;99.90;;;;;;5113436;27;20114;-82
2023/08/28 02:27:52;;;;;;;4.28;2.63;;;17.10;99.90;;;;;;5077504;28;20042;-84
2023/08/28 02:30:18;;;;;;;4.63;2.63;;;17.00;99.90;;;;;;5129310;27;20062;-84
2023/08/28 02:32:44;;;;;;;4.95;3.50;;;16.90;99.90;;;;;;5079731;27;20045;-84
2023/08/28 02:35:13;;;;;;;6.00;3.67;;;16.90;99.90;;;;;;5133220;27;20031;-82
2023/08/28 02:37:40;;;;;;;5.75;3.38;;;16.90;99.90;;;;;;5116763;27;20486;-83
2023/08/28 02:40:06;;;;;;;5.07;3.22;;;16.90;99.90;;;;;;5115076;27;20045;-83
2023/08/28 02:42:32;;;;;;;3.20;2.90;;;16.90;99.90;;;;;;5101181;27;20057;-82
2023/08/28 02:44:58;;;;;;;5.88;3.05;;;16.80;99.90;;;;;;5116440;27;20042;-82
2023/08/28 02:47:23;;;;;;;3.65;3.20;;;16.80;99.90;;;;;;5115347;27;20038;-82
2023/08/28 02:49:49;;;;;;;4.53;2.80;;;16.70;99.90;;;;;;5093314;27;20054;-81
2023/08/28 02:52:15;;;;;;;3.70;3.28;;;16.70;99.90;;;;;;5118391;27;20054;-82
2023/08/28 02:54:41;;;;;;;3.70;3.30;;;16.80;99.90;;;;;;5115256;27;20031;-82
2023/08/28 02:57:06;;;;;;;3.63;3.30;;;16.70;99.90;;;;;;5096170;27;20035;-83
2023/08/28 02:59:32;;;;;;;5.93;3.50;;;16.80;99.90;;;;;;5115271;27;20047;-81
2023/08/28 03:01:58;;;;;;;4.80;3.20;;;16.70;99.90;;;;;;5101231;27;20041;-83
2023/08/28 03:04:24;;;;;;;3.83;3.42;;;16.80;99.90;;;;;;5087033;27;20488;-82
2023/08/28 03:06:53;;;;;;;3.92;2.78;;;16.80;99.90;;;;;;5097383;27;20411;-83
2023/08/28 03:09:18;;;;;;;5.53;2.67;;;16.70;99.90;;;;;;5096814;27;20027;-81
2023/08/28 03:11:44;;;;;;;4.15;2.90;;;16.90;99.90;;;;;;5132938;27;20039;-83
2023/08/28 03:14:11;;;;;;;6.25;2.90;;;17.00;99.90;;;;;;5095310;27;20035;-81
2023/08/28 03:16:36;;;;;;;3.17;2.40;;;16.90;99.90;;;;;;5115636;27;20046;-81
2023/08/28 03:19:02;;;;;;;3.08;2.42;;;17.00;99.90;;;;;;5099976;27;20509;-81
2023/08/28 03:21:28;;;;;;;4.90;2.33;;;17.00;99.90;;;;;;5099407;27;20088;-81
2023/08/28 03:23:54;;;;;;;3.22;2.67;;;17.20;99.90;;;;;;5113476;27;20041;-82
2023/08/28 03:26:19;;;;;;;2.90;2.38;;;17.00;99.90;;;;;;5071632;27;20046;-82
2023/08/28 03:28:47;;;;;;;4.45;2.35;;;17.00;99.90;;;;;;5097687;27;20385;-82
2023/08/28 03:31:12;;;;;;;3.22;2.45;;;17.10;99.90;;;;;;5111557;27;20031;-83
2023/08/28 03:33:39;;;;;;;3.58;2.42;;;17.00;99.90;;;;;;5107970;27;20041;-84
2023/08/28 03:36:05;;;;;;;3.85;2.60;;;16.90;99.90;;;;;;5133994;27;20056;-85
2023/08/28 03:38:31;;;;;;;3.33;2.50;;;17.00;99.90;;;;;;5095217;27;20080;-81
2023/08/28 03:40:57;;;;;;;5.20;2.88;;;16.80;99.90;;;;;;5082260;27;20047;-82
2023/08/28 03:43:22;;;;;;;6.70;3.40;;;16.80;99.90;;;;;;5117713;27;20034;-83
2023/08/28 03:45:48;;;;;;;7.18;3.40;;;16.80;99.90;;;;;;5097071;27;20039;-81
2023/08/28 03:48:14;;;;;;;3.03;2.72;;;16.80;99.90;;;;;;5097235;27;20434;-81
2023/08/28 03:50:40;;;;;;;4.40;2.53;;;16.70;99.90;;;;;;5108810;27;20431;-80
2023/08/28 03:53:05;;;;;;;5.47;2.75;;;16.70;99.90;;;;;;5117257;27;20046;-82
2023/08/28 03:55:31;;;;;;;5.80;3.20;;;16.60;99.90;;;;;;5097368;27;20043;-82
2023/08/28 03:57:58;;;;;;;3.08;2.78;;;16.70;99.90;;;;;;5114855;27;20049;-84
2023/08/28 04:00:25;;;;;;;3.25;2.60;;;16.70;99.90;;;;;;5110780;27;20459;-81
2023/08/28 04:02:51;;;;;;;4.50;3.00;;;16.60;99.90;;;;;;5102205;27;20034;-81
2023/08/28 04:05:17;;;;;;;3.95;3.30;;;16.60;99.90;;;;;;5115091;27;20038;-81
2023/08/28 04:07:43;;;;;;;6.50;3.35;;;16.60;99.90;;;;;;5113733;27;20488;-81
2023/08/28 04:10:11;;;;;;;3.92;3.10;;;16.60;99.90;;;;;;5081781;27;20035;-82
2023/08/28 04:12:37;;;;;;;7.07;3.58;;;16.60;99.90;;;;;;5128231;27;20073;-80
2023/08/28 04:15:04;;;;;;;6.85;3.42;;;16.60;99.90;;;;;;5097997;27;20471;-82
2023/08/28 04:17:30;;;;;;;6.68;3.95;;;16.60;99.90;;;;;;5117087;27;20087;-83
2023/08/28 04:19:56;;;;;;;3.83;3.20;;;16.70;99.90;;;;;;5100283;27;20451;-84
2023/08/28 04:22:22;;;;;;;4.78;2.67;;;16.60;99.90;;;;;;5124271;27;20042;-81
2023/08/28 04:24:50;;;;;;;5.05;2.97;;;16.60;99.90;;;;;;5114706;27;20037;-82
2023/08/28 04:27:17;;;;;;;3.67;3.15;;;16.50;99.90;;;;;;5128882;27;20049;-80
2023/08/28 04:29:42;;;;;;;2.83;2.53;;;16.40;99.90;;;;;;5114312;27;20470;-80
2023/08/28 04:32:09;;;;;;;6.85;3.40;;;16.30;99.90;;;;;;5116211;27;20046;-82
2023/08/28 04:34:35;;;;;;;5.03;3.05;;;16.40;99.90;;;;;;5133065;27;20079;-84
2023/08/28 04:37:01;;;;;;;5.78;3.25;;;16.40;99.90;;;;;;5152690;27;20373;-83
2023/08/28 04:39:28;;;;;;;3.40;2.70;;;16.40;99.90;;;;;;5113329;27;20515;-82
2023/08/28 04:41:54;;;;;;;3.05;2.75;;;16.40;99.90;;;;;;5133566;27;20087;-85
2023/08/28 04:44:22;;;;;;;5.55;3.38;;;16.20;99.90;;;;;;5117239;27;20035;-85
2023/08/28 04:46:48;;;;;;;4.05;3.63;;;16.30;99.90;;;;;;5096295;27;20046;-82
2023/08/28 04:49:17;;;;;;;4.13;3.22;;;16.10;99.90;;;;;;5093057;27;20047;-85
2023/08/28 04:51:43;;;;;;;3.65;3.20;;;16.30;99.90;;;;;;5124279;27;20505;-84
2023/08/28 04:54:09;;;;;;;5.88;3.63;;;16.30;99.90;;;;;;5115396;27;20395;-84
2023/08/28 04:56:35;;;;;;;5.07;3.70;;;16.20;99.90;;;;;;5110747;27;20066;-82
2023/08/28 04:59:01;;;;;;;6.45;3.58;;;16.40;99.90;;;;;;5108182;27;20069;-84
2023/08/28 05:01:26;;;;;;;4.20;3.80;;;16.40;99.90;;;;;;5103480;27;20046;-84
2023/08/28 05:03:52;;;;;;;4.75;3.80;;;16.30;99.90;;;;;;5093969;27;20039;-84
2023/08/28 05:06:18;;;;;;;8.77;3.92;;;16.30;99.90;;;;;;5066366;27;20035;-82
2023/08/28 05:08:44;;;;;;;6.93;4.35;;;16.40;99.90;;;;;;5112529;27;20039;-81
2023/08/28 05:11:10;;;;;;;4.75;4.25;;;16.50;99.90;;;;;;5132572;27;20027;-82
2023/08/28 05:13:35;;;;;;;6.25;4.05;;;16.40;99.90;;;;;;5092939;27;20034;-82
2023/08/28 05:16:01;;;;;;;7.10;6.40;;;16.50;99.90;;;;;;5097238;27;20122;-83
2023/08/28 05:18:28;;;;;;;8.70;6.00;;;16.60;99.90;;;;;;5131402;27;20077;-82
2023/08/28 05:20:54;;;;;;;6.75;5.78;;;16.80;99.90;;;;;;5082863;27;20035;-82
2023/08/28 05:23:25;;;;;;;6.30;4.40;;;16.80;99.90;;;;;;5114685;27;20034;-82
2023/08/28 05:25:52;;;;;;;5.97;4.38;;;16.80;99.90;;;;;;5092581;27;20047;-82
2023/08/28 05:28:18;;;;;;;6.97;4.10;;;16.70;99.90;;;;;;5096900;27;20030;-84
2023/08/28 05:30:45;;;;;;;6.30;4.35;;;16.70;99.90;;;;;;5127134;27;20409;-83
2023/08/28 05:33:11;;;;;;;4.05;3.60;;;16.40;99.90;;;;;;5116061;27;20812;-83
2023/08/28 05:35:38;;;;;;;4.88;4.10;;;16.90;99.90;;;;;;5115378;27;20038;-87
2023/08/28 05:38:07;;;;;;;3.42;3.00;;;16.90;99.90;;;;;;5093541;27;20501;-83
2023/08/28 05:40:33;;;;;;;4.00;3.58;;;16.70;99.90;;;;;;5113354;27;20057;-81
2023/08/28 05:42:59;;;;;;;7.70;3.70;;;16.70;99.90;;;;;;5117595;27;20134;-82
2023/08/28 05:45:25;;;;;;;4.38;3.47;;;16.90;99.90;;;;;;5115587;27;20487;-83
2023/08/28 05:47:51;;;;;;;5.28;3.30;;;17.00;99.90;;;;;;5128615;27;20082;-83
2023/08/28 05:50:18;;;;;;;7.90;3.83;;;16.90;99.90;;;;;;5131802;27;20042;-80
2023/08/28 05:52:56;;;;;;;4.57;3.28;;;17.00;99.90;;;;;;5098607;27;21090;-84
2023/08/28 05:55:22;;;;;;;4.22;3.33;;;16.90;99.90;;;;;;5132286;27;20030;-81
2023/08/28 05:57:48;;;;;;;4.15;3.35;;;17.00;99.90;;;;;;5088227;27;20038;-79
2023/08/28 06:00:14;;;;;;;4.65;3.35;;;17.00;99.90;;;;;;5091821;27;20038;-78
2023/08/28 06:02:40;;;;;;;7.65;3.92;;;17.00;99.90;;;;;;5111231;27;20103;-79
2023/08/28 06:05:07;;;;;;;6.65;3.88;;;17.20;99.90;;;;;;5113102;27;20035;-79
2023/08/28 06:07:34;;;;;;;7.40;4.07;;;17.20;99.90;;;;;;5130972;27;20038;-79
2023/08/28 06:10:04;;;;;;;5.28;4.32;;;17.20;99.90;;;;;;5113907;27;20049;-78
2023/08/28 06:12:30;;;;;;;4.90;4.30;;;17.20;99.90;;;;;;5113839;27;20510;-79
2023/08/28 06:14:56;;;;;;;5.40;4.25;;;17.40;99.90;;;;;;5097038;27;20049;-79
2023/08/28 06:17:23;;;;;;;5.07;3.92;;;17.60;99.90;;;;;;5086053;28;20035;-78
2023/08/28 06:19:49;;;;;;;4.57;3.67;;;17.50;99.90;;;;;;5105412;27;20062;-78
2023/08/28 06:22:15;;;;;;;4.90;3.80;;;17.50;99.90;;;;;;5131119;27;20115;-78
2023/08/28 06:24:42;;;;;;;3.75;3.42;;;17.70;99.90;;;;;;5094378;27;20047;-78
2023/08/28 06:27:08;;;;;;;5.15;3.42;;;17.70;99.90;;;;;;5088590;27;20039;-78
2023/08/28 06:29:33;;;;;;;3.55;3.05;;;17.90;99.90;;;;;;5103291;27;20092;-78
2023/08/28 06:31:59;;;;;;;4.75;2.90;;;17.70;99.90;;;;;;5109457;27;20045;-79
2023/08/28 06:34:25;;;;;;;3.63;3.20;;;17.80;99.90;;;;;;5113357;27;20449;-78
2023/08/28 06:36:51;;;;;;;7.20;2.88;;;18.00;99.90;;;;;;5091044;28;20415;-77
2023/08/28 06:39:18;;;;;;;4.53;2.65;;;18.00;99.90;;;;;;5094238;27;20038;-78
2023/08/28 06:41:44;;;;;;;4.32;2.45;;;18.00;99.90;;;;;;5096635;27;20039;-78
2023/08/28 06:44:10;;;;;;;5.05;2.55;;;18.10;99.90;;;;;;5113957;27;20041;-78
2023/08/28 06:46:37;;;;;;;3.88;2.33;;;18.30;99.90;;;;;;5113412;27;20043;-78
2023/08/28 06:49:02;;;;;;;3.05;2.05;;;18.40;99.90;;;;;;5130733;27;20520;-79
2023/08/28 06:51:28;;;;;;;3.50;2.03;;;18.50;99.90;;;;;;5129589;27;20050;-79
2023/08/28 06:53:56;;;;;;;4.60;2.22;;;18.60;99.90;;;;;;5112111;27;20495;-78
2023/08/28 06:56:22;;;;;;;4.50;2.10;;;18.70;99.90;;;;;;5113739;27;20266;-78
2023/08/28 06:58:47;;;;;;;3.72;2.40;;;18.80;99.90;;;;;;5113642;27;20918;-78
2023/08/28 07:01:13;;;;;;;4.72;2.22;;;18.80;99.90;;;;;;5095498;27;20031;-79
2023/08/28 07:03:39;;;;;;;4.20;1.77;;;18.80;99.90;;;;;;5091495;27;20417;-79
2023/08/28 07:06:04;;;;;;;4.43;2.22;;;19.10;99.90;;;;;;5093115;28;20091;-79
2023/08/28 07:08:30;;;;;;;3.60;1.73;;;19.10;99.90;;;;;;5127655;27;20030;-78
2023/08/28 07:10:56;;;;;;;4.60;1.73;;;19.20;99.90;;;;;;5109738;27;20066;-79
2023/08/28 07:13:22;;;;;;;2.40;1.60;;;19.10;99.90;;;;;;5105568;27;20641;-80
2023/08/28 07:15:48;;;;;;;2.97;2.20;;;19.30;99.90;;;;;;5129874;27;20062;-80
2023/08/28 07:18:13;;;;;;;3.60;1.92;;;19.10;99.90;;;;;;5113192;27;20031;-79
2023/08/28 07:20:39;;;;;;;3.10;2.22;;;19.50;99.90;;;;;;5131141;27;20129;-80
2023/08/28 07:23:05;;;;;;;2.45;2.10;;;19.40;99.90;;;;;;5132258;27;20034;-79
2023/08/28 07:25:31;;;;;;;3.65;2.28;;;19.50;99.90;;;;;;5088942;27;20531;-79
2023/08/28 07:27:57;;;;;;;2.72;2.22;;;19.60;99.90;;;;;;5109785;27;20046;-79
2023/08/28 07:30:23;;;;;;;3.50;2.22;;;19.70;99.90;;;;;;5117366;27;20053;-80
2023/08/28 07:32:48;;;;;;;3.83;2.50;;;19.70;99.90;;;;;;5115228;27;20026;-80
2023/08/28 07:35:14;;;;;;;3.25;2.53;;;19.60;99.90;;;;;;5091123;27;20367;-80
2023/08/28 07:37:40;;;;;;;4.28;2.45;;;19.90;99.90;;;;;;5134332;27;20119;-80
2023/08/28 07:40:07;;;;;;;4.85;2.22;;;20.00;99.90;;;;;;5106373;27;20043;-79
2023/08/28 07:42:33;;;;;;;3.47;2.53;;;20.10;99.90;;;;;;5133043;27;20466;-79
2023/08/28 07:44:59;;;;;;;4.82;2.15;;;20.10;99.90;;;;;;5087213;27;20070;-76
2023/08/28 07:47:25;;;;;;;3.50;2.15;;;20.20;99.90;;;;;;5133532;27;20068;-79
2023/08/28 07:49:51;;;;;;;3.28;2.30;;;20.10;99.90;;;;;;5116547;27;20126;-80
2023/08/28 07:52:17;;;;;;;2.67;2.10;;;20.00;99.90;;;;;;5111736;27;20118;-79
2023/08/28 07:54:43;;;;;;;3.00;1.98;;;20.40;99.90;;;;;;5115750;27;21604;-79
2023/08/28 07:57:09;;;;;;;4.50;2.33;;;20.40;99.90;;;;;;5106687;27;20031;-79
2023/08/28 07:59:34;;;;;;;2.28;2.00;;;20.60;99.90;;;;;;5112834;27;20047;-79
2023/08/28 08:02:00;;;;;;;2.72;2.20;;;20.30;99.90;;;;;;5098366;27;20167;-80
2023/08/28 08:04:26;;;;;;;4.43;1.85;;;20.60;99.90;;;;;;5109679;27;20133;-79
2023/08/28 08:06:52;;;;;;;4.22;2.20;;;20.80;99.90;;;;;;5132932;27;20043;-80
2023/08/28 08:09:18;;;;;;;5.72;2.22;;;20.80;99.90;;;;;;5133781;27;20035;-80
2023/08/28 08:11:44;;;;;;;2.65;1.90;;;21.10;99.90;;;;;;5132152;27;20034;-79
2023/08/28 08:14:10;;;;;;;3.10;1.65;;;21.20;99.90;;;;;;5115143;27;20031;-80
2023/08/28 08:16:36;;;;;;;2.42;2.10;;;21.40;99.90;;;;;;5131653;27;20050;-79
2023/08/28 08:19:02;;;;;;;2.95;1.60;;;21.30;99.90;;;;;;5115092;27;20038;-79
2023/08/28 08:21:28;;;;;;;3.47;1.15;;;21.50;99.90;;;;;;5111641;27;20051;-79
2023/08/28 08:23:55;;;;;;;3.30;1.38;;;21.70;99.90;;;;;;5111395;27;20058;-78
2023/08/28 08:26:21;;;;;;;2.15;1.25;;;21.50;99.90;;;;;;5074388;27;20191;-79
2023/08/28 08:28:47;;;;;;;2.38;0.95;;;21.20;99.90;;;;;;5109312;27;20038;-79
2023/08/28 08:31:13;;;;;;;1.63;1.10;;;21.00;99.90;;;;;;5107638;27;20869;-78
2023/08/28 08:33:39;;;;;;;2.95;1.10;;;21.00;99.90;;;;;;5095065;27;20046;-78
2023/08/28 08:36:05;;;;;;;2.65;1.45;;;21.20;99.90;;;;;;5113096;27;20170;-78
2023/08/28 08:38:31;;;;;;;1.73;1.10;;;21.10;99.90;;;;;;5132448;27;20046;-80
2023/08/28 08:40:58;;;;;;;3.78;1.25;;;21.30;99.90;;;;;;5112188;27;20031;-79
2023/08/28 08:43:28;;;;;;;3.30;1.42;;;21.50;99.90;;;;;;5114490;27;20483;-80
2023/08/28 08:46:15;;;;;;;2.50;1.45;;;21.70;99.90;;;;;;5128654;27;20031;-79
2023/08/28 08:48:42;;;;;;;2.88;1.40;;;22.00;99.90;;;;;;5115752;27;20050;-79
2023/08/28 08:51:08;;;;;;;2.95;1.30;;;22.00;99.90;;;;;;5109936;27;20043;-79
2023/08/28 08:53:39;;;;;;;3.13;1.20;;;22.30;99.90;;;;;;5068036;28;20494;-80
2023/08/28 08:56:06;;;;;;;3.63;1.35;;;22.50;99.90;;;;;;5109353;27;20047;-79
2023/08/28 08:58:33;;;;;;;2.17;1.10;;;22.60;99.90;;;;;;5112807;27;20684;-79
2023/08/28 09:01:00;;;;;;;3.05;1.40;;;22.80;99.90;;;;;;5093831;27;20075;-79
2023/08/28 09:03:26;;;;;;;2.95;1.40;;;22.90;99.90;;;;;;5085412;27;20087;-79
2023/08/28 09:05:53;;;;;;;2.95;1.30;;;22.80;99.90;;;;;;5126225;27;20042;-80
2023/08/28 09:08:23;;;;;;;1.13;0.95;;;22.50;99.90;;;;;;5126192;27;20027;-79
2023/08/28 09:10:49;;;;;;;1.45;0.90;;;22.20;99.90;;;;;;5122982;27;20383;-80
2023/08/28 09:13:14;;;;;;;3.63;1.00;;;22.10;99.90;;;;;;5087344;27;20054;-80
2023/08/28 09:15:40;;;;;;;3.70;1.35;;;22.00;99.90;;;;;;5124389;27;20034;-80
2023/08/28 09:18:06;;;;;;;1.73;0.90;;;22.30;99.90;;;;;;5129455;27;20043;-81
2023/08/28 09:20:32;;;;;;;2.17;1.15;;;22.40;99.90;;;;;;5094620;27;20035;-81
2023/08/28 09:22:58;;;;;;;2.22;1.00;;;22.50;99.90;;;;;;5128805;27;20095;-81
2023/08/28 09:25:24;;;;;;;0.88;0.80;;;22.80;99.90;;;;;;5109375;27;20043;-81
2023/08/28 09:27:52;;;;;;;2.83;1.08;;;23.20;99.90;;;;;;5108938;27;20036;-81
2023/08/28 09:30:36;;;;;;;2.50;1.25;;;23.40;99.90;;;;;;5110306;27;20266;-82
2023/08/28 09:33:06;;;;;;;1.75;1.05;;;23.60;99.90;;;;;;5111280;27;20046;-81
2023/08/28 09:35:42;;;;;;;3.67;1.10;;;23.90;99.90;;;;;;5110509;27;20047;-81
2023/08/28 09:38:09;;;;;;;1.50;0.90;;;24.20;99.90;;;;;;5128950;27;20066;-81
2023/08/28 09:40:36;;;;;;;1.48;1.10;;;24.20;99.90;;;;;;5128345;27;20039;-79
2023/08/28 09:43:12;;;;;;;1.77;0.98;;;23.80;99.90;;;;;;5125544;27;20284;-81
2023/08/28 09:45:39;;;;;;;1.55;1.23;;;23.40;99.90;;;;;;5124641;27;20043;-80
2023/08/28 09:48:06;;;;;;;1.10;0.82;;;23.10;99.90;;;;;;5126423;27;20442;-81
2023/08/28 09:50:33;;;;;;;1.48;0.90;;;23.00;99.90;;;;;;5111129;27;20051;-81
2023/08/28 09:53:10;;;;;;;1.80;0.70;;;23.50;99.90;;;;;;5067316;28;20067;-80
2023/08/28 09:55:54;;;;;;;0.90;0.80;;;24.00;99.90;;;;;;5125226;27;20039;-80
2023/08/28 09:58:23;;;;;;;0.85;0.52;;;24.00;99.90;;;;;;5128594;27;20039;-79
2023/08/28 10:00:51;;;;;;;7.25;1.20;;;24.30;99.90;;;;;;5111119;28;20043;-78
2023/08/28 10:03:17;;;;;;;6.93;1.63;;;23.80;99.90;;;;;;5108205;27;20054;-75
2023/08/28 10:05:47;;;;;;;3.55;1.30;;;22.80;99.90;;;;;;5123578;27;20043;-74
2023/08/28 10:08:14;;;;;;;3.40;1.30;;;22.20;99.90;;;;;;5103291;28;20047;-75
2023/08/28 10:10:52;;;;;;;4.15;1.33;;;21.80;99.90;;;;;;5107107;28;20565;-74
2023/08/28 10:13:22;;;;;;;5.95;1.50;;;21.50;99.90;;;;;;5102469;28;20103;-74
2023/08/28 10:16:02;;;;;;;3.10;1.00;;;21.20;99.90;;;;;;5106918;28;20039;-74
2023/08/28 10:18:32;;;;;;;2.30;1.08;;;21.50;99.90;;;;;;5127506;28;20076;-75
2023/08/28 10:20:59;;;;;;;1.58;0.82;;;21.30;99.90;;;;;;5120395;28;20058;-75
2023/08/28 10:23:27;;;;;;;2.15;1.20;;;21.30;99.90;;;;;;5126405;28;20035;-76
2023/08/28 10:25:54;;;;;;;2.88;1.17;;;21.10;99.90;;;;;;5122824;28;20475;-76
2023/08/28 10:28:21;;;;;;;2.28;1.13;;;21.90;99.90;;;;;;5087367;28;20047;-75
2023/08/28 10:30:50;;;;;;;1.92;1.40;;;21.80;99.90;;;;;;5109965;28;20042;-76
2023/08/28 10:33:18;;;;;;;2.08;1.20;;;21.50;99.90;;;;;;5100788;28;20044;-76
2023/08/28 10:35:47;;;;;;;1.85;1.38;;;21.60;99.90;;;;;;5119760;28;20058;-76
2023/08/28 10:38:13;;;;;;;1.40;1.10;;;21.80;99.90;;;;;;5126771;28;20058;-76
2023/08/28 10:40:40;;;;;;;1.20;1.10;;;21.80;99.90;;;;;;5107536;28;20036;-77
2023/08/28 10:43:06;;;;;;;1.65;1.20;;;22.00;99.90;;;;;;5126353;28;20065;-78
2023/08/28 10:45:37;;;;;;;1.35;1.05;;;21.70;99.90;;;;;;5126025;28;20053;-76
2023/08/28 10:48:05;;;;;;;1.65;1.10;;;22.30;99.90;;;;;;5126047;28;20039;-78
2023/08/28 10:50:35;;;;;;;1.80;1.08;;;22.10;99.90;;;;;;5109014;28;20096;-78
2023/08/28 10:53:01;;;;;;;3.28;1.30;;;22.10;99.90;;;;;;5108821;28;20338;-78
2023/08/28 10:55:27;;;;;;;2.65;1.40;;;22.30;99.90;;;;;;5123241;27;20042;-78
2023/08/28 10:57:53;;;;;;;1.73;1.30;;;22.30;99.90;;;;;;5085674;28;20475;-79
2023/08/28 11:00:20;;;;;;;1.55;1.27;;;22.70;99.90;;;;;;5112891;27;20039;-80
2023/08/28 11:03:09;;;;;;;1.83;1.27;;;22.70;99.90;;;;;;5130813;27;20079;-79
2023/08/28 11:05:39;;;;;;;2.97;1.40;;;22.60;99.90;;;;;;5110486;27;20087;-78
2023/08/28 11:08:06;;;;;;;3.70;1.60;;;22.50;99.90;;;;;;5085551;27;20047;-78
2023/08/28 11:10:34;;;;;;;2.33;1.30;;;22.70;99.90;;;;;;5101892;27;20028;-78
2023/08/28 11:13:08;;;;;;;1.77;1.00;;;22.70;99.90;;;;;;5091099;28;20036;-78
2023/08/28 11:15:35;;;;;;;;;;;22.50;99.90;;;;;;5130196;27;20453;-77
2023/08/28 11:18:19;;;;;;;3.03;1.23;;;22.50;99.90;;;;;;5129155;27;19922;-79
2023/08/28 11:20:58;;;;;;;2.58;1.10;;;22.60;99.90;;;;;;5113992;27;20043;-78
2023/08/28 11:23:35;;;;;;;3.65;1.10;;;23.00;99.90;;;;;;5128222;27;20050;-78
2023/08/28 11:26:04;;;;;;;1.77;1.00;;;23.40;99.90;;;;;;5109888;27;20043;-78
2023/08/28 11:28:45;;;;;;;2.72;1.08;;;23.40;99.90;;;;;;5109520;27;20043;-78
2023/08/28 11:31:12;;;;;;;2.13;1.20;;;23.50;99.90;;;;;;5129482;27;20078;-80
2023/08/28 11:33:43;;;;;;;3.33;1.35;;;23.50;99.90;;;;;;5128640;27;20067;-78
2023/08/28 11:36:14;;;;;;;2.05;1.00;;;23.80;99.90;;;;;;5105347;27;20198;-80
2023/08/28 11:38:41;;;;;;;1.98;1.00;;;24.50;99.90;;;;;;5127626;27;20047;-79
2023/08/28 11:41:10;;;;;;;2.10;1.00;;;25.00;99.90;;;;;;5088854;28;20078;-79
2023/08/28 11:43:41;;;;;;;2.72;0.93;;;24.90;99.90;;;;;;5090397;27;20581;-77
2023/08/28 11:46:08;;;;;;;2.22;1.30;;;23.80;99.90;;;;;;5105930;27;20495;-76
2023/08/28 11:48:38;;;;;;;2.03;0.90;;;23.00;99.90;;;;;;5116819;27;20050;-75
2023/08/28 11:51:07;;;;;;;3.88;1.17;;;22.30;99.90;;;;;;5074131;28;20059;-75
2023/08/28 11:53:42;;;;;;;4.75;1.25;;;21.80;99.90;;;;;;5107096;27;20118;-76
2023/08/28 11:56:12;;;;;;;5.28;1.45;;;21.50;99.90;;;;;;5121135;27;20032;-76
2023/08/28 11:58:39;;;;;;;1.67;1.10;;;20.70;99.90;;;;;;5119733;27;20093;-76
2023/08/28 12:01:12;;;;;;;1.30;0.90;;;20.50;99.90;;;;;;5126060;27;20130;-76
2023/08/28 12:03:39;;;;;;;1.25;0.85;;;20.80;99.90;;;;;;5126384;27;20035;-75
2023/08/28 12:06:07;;;;;;;2.55;1.15;;;20.20;99.90;;;;;;5126527;27;20038;-75
2023/08/28 12:08:44;;;;;;;3.60;1.13;;;20.40;99.90;;;;;;5128961;27;20551;-74
2023/08/28 12:11:13;;;;;;;5.40;1.20;;;21.10;99.90;;;;;;5119894;27;20071;-74
2023/08/28 12:13:38;;;;;;;1.92;1.23;;;20.30;99.90;;;;;;5105766;27;20122;-76
2023/08/28 12:16:15;;;;;;;2.92;1.42;;;21.30;99.90;;;;;;5102721;27;20127;-76
2023/08/28 12:18:52;;;;;;;2.90;1.30;;;20.80;99.90;;;;;;5121752;27;20587;-75
2023/08/28 12:21:19;;;;;;;2.55;1.35;;;21.10;99.90;;;;;;5127832;27;20053;-75
2023/08/28 12:23:50;;;;;;;3.08;1.10;;;22.30;99.90;;;;;;5124147;27;20137;-74
2023/08/28 12:26:17;;;;;;;1.52;1.23;;;20.90;99.90;;;;;;5119229;27;20035;-75
2023/08/28 12:28:43;;;;;;;1.73;1.10;;;21.20;99.90;;;;;;5109262;27;20123;-76
2023/08/28 12:31:09;;;;;;;4.22;1.27;;;22.00;99.90;;;;;;5110769;27;20035;-75
2023/08/28 12:33:43;;;;;;;2.75;1.30;;;22.90;99.90;;;;;;5128090;27;20653;-75
2023/08/28 12:36:09;;;;;;;1.75;1.10;;;22.10;99.90;;;;;;5117579;27;20376;-77
2023/08/28 12:39:05;;;;;;;1.45;1.20;;;23.30;99.90;;;;;;5103613;27;20136;-75
2023/08/28 12:41:36;;;;;;;1.95;1.10;;;23.30;99.90;;;;;;5115358;27;20063;-76
2023/08/28 12:44:02;;;;;;;2.20;1.60;;;22.70;99.90;;;;;;5100577;27;20054;-77
2023/08/28 12:46:29;;;;;;;2.75;1.30;;;23.40;99.90;;;;;;5119358;27;20038;-76
2023/08/28 12:48:55;;;;;;;2.08;1.45;;;21.80;99.90;;;;;;5127174;27;20031;-75
2023/08/28 12:51:21;;;;;;;3.22;1.30;;;23.20;99.90;;;;;;5112666;27;20058;-76